Westford, MA (01886)

1:36 PM EST on December 06, 2016 (GMT -0500)
Boston Road | | Change Station

Elev 344 ft 42.57 °N, 71.44 °W | Updated 46 seconds ago

Scattered Clouds
Scattered Clouds
42.4 °F
Feels Like 42 °F
N
1.8
Wind Variable Wind from NE
Gusts 2.5 mph

Today
High -- | Low -- °F
--% Chance of Precip.
Yesterday
High -- | Low -- °F
Precip. -- in
Pressure 30.10 in
Visibility 10.0 miles
Clouds Few 5000 ft
Scattered Clouds 25000 ft
Windchill 42 °F
Dew Point 29 °F
Humidity 59%
Rainfall 0.11 in
Snow Depth Not available.
7:01 AM 4:12 PM
Waxing Crescent, 44% visible
METAR KBED 061756Z 01006KT 10SM FEW050 SCT250 06/M02 A3005 RMK AO2 SLP192 T00561022 10061 21061 58024
Pressure 30.10 in
Visibility 10.0 miles
Clouds Few 5000 ft
Scattered Clouds 25000 ft
Windchill 42 °F
Dew Point 29 °F
Humidity 59%
Rainfall 0.11 in
Snow Depth Not available.
7:01 AM 4:12 PM
Waxing Crescent, 44% visible
METAR KBED 061756Z 01006KT 10SM FEW050 SCT250 06/M02 A3005 RMK AO2 SLP192 T00561022 10061 21061 58024

10-Day Weather Forecast

Almanac

Astronomy

Dec. 06, 2016 Rise Set
Actual Time
Civil Twilight
Nautical Twilight
Astronomical Twilight
Moon
Length of Visible Light
Length of Day
Tomorrow will be .
, % of the Moon is Illuminated

Today's Extremes

State Highs State Lows

Community

WunderPhotos

Upload Photos

1,955,999 photos uploaded!

WunderBlog® & News

Nearby

Air Quality

  Air Quality AQ Index Pollutant
Not available.

Snow Depth

Station Depth Elevation

Earthquake Activity

City Distance Mag. Time & Date
Minimum magnitude displayed is 2.5.

Coastal Water Temperatures

Place Temperature

Stations

Nearby Weather Stations

Station Location Temp. Windchill Dew Point Humidity Wind Precip. Elev Updated Type
                   

Watches & Warnings

There are currently no watches in effect.